Time;durP1;ratioP1;P1;durP2;ratioP2;P2;SDS_P1;SDS_P2;PMS_P1;PMS_P2;Temp;Humidity;BMP_temperature;BMP_pressure;BME280_temperature;BME280_humidity;BME280_pressure;Samples;Min_cycle;Max_cycle;Signal;HPM_P1;HPM_P2
2023/04/15 00:00:56;;;;;;;14.20;12.80;;;;;;;7.62;68.44;100291.69;5113474;28;20185;-69
2023/04/15 00:03:23;;;;;;;14.63;12.37;;;;;;;7.55;68.71;100293.91;5113224;28;20191;-69
2023/04/15 00:05:50;;;;;;;13.30;12.17;;;;;;;7.57;68.73;100288.47;5115253;28;20203;-69
2023/04/15 00:08:17;;;;;;;13.63;12.30;;;;;;;7.53;69.18;100289.63;5116959;28;20190;-69
2023/04/15 00:10:45;;;;;;;13.47;12.13;;;;;;;7.47;69.19;100290.91;5117619;28;20544;-69
2023/04/15 00:13:11;;;;;;;12.30;11.17;;;;;;;7.44;69.46;100296.41;5116678;28;20196;-69
2023/04/15 00:15:38;;;;;;;13.97;12.00;;;;;;;7.42;69.23;100292.97;5117366;28;20671;-69
2023/04/15 00:18:04;;;;;;;12.87;11.73;;;;;;;7.33;69.99;100291.81;5116910;28;20189;-69
2023/04/15 00:20:31;;;;;;;21.63;11.80;;;;;;;7.41;69.74;100293.94;5116691;28;20217;-69
2023/04/15 00:22:59;;;;;;;13.40;12.07;;;;;;;7.43;69.87;100297.38;5116566;28;20187;-69
2023/04/15 00:25:25;;;;;;;13.50;12.20;;;;;;;7.42;69.28;100300.97;5116861;28;20679;-69
2023/04/15 00:27:52;;;;;;;14.27;12.80;;;;;;;7.40;69.88;100292.25;5116436;28;20198;-69
2023/04/15 00:30:19;;;;;;;13.70;12.47;;;;;;;7.39;69.84;100299.38;5116458;28;20177;-69
2023/04/15 00:32:45;;;;;;;13.10;12.00;;;;;;;7.40;69.77;100300.25;5117155;28;20643;-69
2023/04/15 00:35:12;;;;;;;13.37;11.93;;;;;;;7.28;70.35;100299.25;5116211;28;20204;-69
2023/04/15 00:37:39;;;;;;;13.60;12.20;;;;;;;7.24;70.42;100298.56;5116462;28;20199;-69
2023/04/15 00:40:11;;;;;;;13.50;12.13;;;;;;;7.16;70.49;100298.22;5097781;28;20622;-69
2023/04/15 00:42:38;;;;;;;22.80;12.93;;;;;;;7.13;71.03;100295.75;5116152;28;20177;-69
2023/04/15 00:45:05;;;;;;;13.37;12.37;;;;;;;7.12;70.97;100293.19;5116069;28;20283;-69
2023/04/15 00:47:34;;;;;;;11.77;11.07;;;;;;;7.11;70.82;100296.78;5116369;28;20185;-69
2023/04/15 00:50:01;;;;;;;12.40;11.23;;;;;;;7.04;71.05;100291.03;5115959;28;20177;-69
2023/04/15 00:52:27;;;;;;;11.13;10.40;;;;;;;6.94;71.66;100292.53;5115927;28;20188;-69
2023/04/15 00:54:54;;;;;;;11.70;10.90;;;;;;;7.01;71.89;100294.72;5115914;28;20215;-69
2023/04/15 00:57:21;;;;;;;14.67;11.83;;;;;;;6.98;71.88;100292.25;5115880;28;20188;-70
2023/04/15 00:59:50;;;;;;;11.97;11.07;;;;;;;6.87;72.10;100289.44;5097516;28;20292;-70
2023/04/15 01:02:16;;;;;;;10.60;9.93;;;;;;;6.84;72.07;100286.09;5097464;28;20202;-70
2023/04/15 01:04:43;;;;;;;14.40;11.00;;;;;;;6.79;72.51;100286.41;5116169;28;20213;-70
2023/04/15 01:07:09;;;;;;;12.63;11.63;;;;;;;6.81;72.70;100293.34;5115656;28;20186;-70
2023/04/15 01:09:36;;;;;;;14.47;11.70;;;;;;;6.86;72.60;100289.53;5115619;28;20178;-69
2023/04/15 01:12:03;;;;;;;12.00;11.17;;;;;;;6.85;73.12;100290.47;5116132;28;20192;-69
2023/04/15 01:14:30;;;;;;;13.53;11.43;;;;;;;6.83;73.05;100293.25;5115844;28;20208;-69
2023/04/15 01:16:57;;;;;;;12.03;11.30;;;;;;;6.78;73.29;100293.53;5114989;28;20185;-69
2023/04/15 01:19:23;;;;;;;18.63;10.90;;;;;;;6.80;73.04;100293.44;5115341;28;20223;-69
2023/04/15 01:21:50;;;;;;;20.97;13.03;;;;;;;6.74;72.98;100288.50;5115553;28;20196;-69
2023/04/15 01:24:17;;;;;;;12.53;11.47;;;;;;;6.70;73.71;100290.47;5116609;28;20304;-70
2023/04/15 01:26:45;;;;;;;11.77;10.77;;;;;;;6.60;73.64;100292.03;5096961;28;20291;-70
2023/04/15 01:29:12;;;;;;;13.47;12.07;;;;;;;6.63;74.10;100293.63;5097946;28;20558;-70
2023/04/15 01:31:38;;;;;;;12.73;11.70;;;;;;;6.59;73.66;100287.66;5115531;28;20231;-69
2023/04/15 01:34:04;;;;;;;12.33;11.47;;;;;;;6.63;73.95;100299.81;5115327;28;20243;-69
2023/04/15 01:36:31;;;;;;;18.73;11.97;;;;;;;6.59;73.92;100301.81;5115090;28;20202;-69
2023/04/15 01:38:58;;;;;;;12.27;11.23;;;;;;;6.60;74.12;100306.16;5096719;28;20196;-69
2023/04/15 01:41:26;;;;;;;13.07;11.93;;;;;;;6.58;74.05;100293.91;5115299;28;20246;-69
2023/04/15 01:43:52;;;;;;;13.30;12.03;;;;;;;6.46;74.43;100295.53;5115183;28;20208;-70
2023/04/15 01:46:19;;;;;;;13.20;11.13;;;;;;;6.45;74.64;100300.97;5115501;28;20177;-70
2023/04/15 01:48:46;;;;;;;12.87;11.70;;;;;;;6.46;74.58;100308.81;5114887;28;20189;-70
2023/04/15 01:51:12;;;;;;;13.00;11.67;;;;;;;6.34;74.77;100302.44;5115144;28;20642;-69
2023/04/15 01:53:38;;;;;;;12.60;11.60;;;;;;;6.30;75.40;100303.63;5114814;28;20549;-69
2023/04/15 01:56:06;;;;;;;11.53;10.53;;;;;;;6.33;74.80;100300.75;5114968;28;20577;-69
2023/04/15 01:58:32;;;;;;;16.47;10.90;;;;;;;6.25;75.22;100294.19;5096424;28;20288;-69
2023/04/15 02:00:58;;;;;;;12.07;10.63;;;;;;;6.22;75.40;100291.72;5096330;28;20637;-70
2023/04/15 02:03:25;;;;;;;11.87;10.90;;;;;;;6.21;75.26;100295.34;5114587;28;20663;-69
2023/04/15 02:05:51;;;;;;;13.73;11.03;;;;;;;6.14;75.49;100293.03;5114761;28;20205;-69
2023/04/15 02:08:18;;;;;;;15.60;10.57;;;;;;;6.11;75.49;100298.56;5096207;28;20189;-69
2023/04/15 02:10:44;;;;;;;16.27;12.30;;;;;;;6.09;75.59;100296.94;5114756;28;20185;-69
2023/04/15 02:13:11;;;;;;;13.17;11.60;;;;;;;6.02;76.04;100296.44;5114466;28;20197;-69
2023/04/15 02:15:37;;;;;;;12.87;11.60;;;;;;;5.84;76.69;100297.50;5096050;28;20690;-69
2023/04/15 02:18:03;;;;;;;21.63;12.93;;;;;;;5.84;76.94;100311.66;5114338;28;20184;-69
2023/04/15 02:20:30;;;;;;;13.43;12.30;;;;;;;5.76;77.95;100301.47;5114768;28;20300;-69
2023/04/15 02:22:57;;;;;;;12.00;11.10;;;;;;;5.76;77.75;100308.59;5096008;28;20192;-69
2023/04/15 02:25:23;;;;;;;12.47;11.40;;;;;;;5.76;78.01;100303.28;5095946;28;20256;-69
2023/04/15 02:27:50;;;;;;;26.53;12.87;;;;;;;5.77;77.94;100302.34;5114050;28;20191;-69
2023/04/15 02:30:16;;;;;;;13.53;12.23;;;;;;;5.74;78.12;100308.66;5114108;28;20173;-69
2023/04/15 02:32:43;;;;;;;14.70;12.87;;;;;;;5.75;78.05;100314.84;5114189;28;20178;-69
2023/04/15 02:35:10;;;;;;;12.67;11.77;;;;;;;5.83;77.79;100309.09;5096312;28;20212;-69
2023/04/15 02:37:42;;;;;;;13.03;11.67;;;;;;;5.80;77.54;100306.63;5114284;28;20177;-69
2023/04/15 02:40:12;;;;;;;14.27;12.47;;;;;;;5.81;78.09;100318.94;5096284;28;20236;-69
2023/04/15 02:42:39;;;;;;;13.67;12.30;;;;;;;5.82;78.06;100324.19;5095656;28;20220;-69
2023/04/15 02:45:11;;;;;;;13.50;12.00;;;;;;;5.75;78.02;100330.78;5095704;28;20254;-69
2023/04/15 02:47:42;;;;;;;12.97;11.87;;;;;;;5.73;78.42;100330.88;5095577;28;20274;-69
2023/04/15 02:50:11;;;;;;;13.30;12.03;;;;;;;5.75;78.21;100339.63;5095628;28;20185;-69
2023/04/15 02:52:40;;;;;;;12.87;11.80;;;;;;;5.71;78.55;100337.22;5096397;28;20231;-69
2023/04/15 02:55:08;;;;;;;11.83;11.10;;;;;;;5.63;78.82;100337.69;5095539;28;20567;-69
2023/04/15 02:57:39;;;;;;;17.23;13.07;;;;;;;5.65;78.96;100337.56;5095805;28;20623;-69
2023/04/15 03:00:10;;;;;;;15.27;11.83;;;;;;;5.66;78.43;100337.50;5095708;28;20731;-69
2023/04/15 03:02:40;;;;;;;14.17;12.47;;;;;;;5.62;78.31;100338.59;5095506;28;20185;-69
2023/04/15 03:05:11;;;;;;;14.33;13.10;;;;;;;5.56;79.03;100340.78;5095342;28;20557;-69
2023/04/15 03:07:39;;;;;;;14.03;12.53;;;;;;;5.51;78.99;100341.88;5096234;28;20193;-69
2023/04/15 03:10:07;;;;;;;14.77;12.23;;;;;;;5.51;79.16;100346.34;5095427;28;20181;-69
2023/04/15 03:12:33;;;;;;;18.13;12.80;;;;;;;5.45;79.90;100344.88;5095401;28;20192;-69
2023/04/15 03:15:00;;;;;;;14.97;13.60;;;;;;;5.40;79.46;100341.63;5095236;28;20253;-69
2023/04/15 03:17:33;;;;;;;26.17;15.50;;;;;;;5.42;79.64;100345.06;5095907;28;20568;-69
2023/04/15 03:20:02;;;;;;;17.37;13.83;;;;;;;5.38;79.96;100335.53;5095211;28;20679;-69
2023/04/15 03:22:29;;;;;;;15.37;13.30;;;;;;;5.36;79.63;100345.41;5095326;28;20193;-69
2023/04/15 03:24:56;;;;;;;14.17;12.67;;;;;;;5.26;79.95;100347.72;5095265;28;20219;-69
2023/04/15 03:27:23;;;;;;;19.47;14.70;;;;;;;5.26;80.31;100357.47;5113367;28;20193;-69
2023/04/15 03:29:52;;;;;;;14.43;13.03;;;;;;;5.21;80.80;100348.91;5095514;28;20193;-69
2023/04/15 03:32:21;;;;;;;14.30;13.03;;;;;;;5.22;80.97;100356.81;5095184;28;20197;-69
2023/04/15 03:34:48;;;;;;;14.60;13.00;;;;;;;5.22;81.61;100355.94;5095926;28;20621;-69
2023/04/15 03:37:15;;;;;;;14.27;13.03;;;;;;;5.25;81.46;100361.09;5095168;28;20196;-69
2023/04/15 03:39:41;;;;;;;17.57;14.70;;;;;;;5.25;81.42;100355.78;5114076;28;20196;-69
2023/04/15 03:42:07;;;;;;;19.80;13.60;;;;;;;5.22;81.42;100363.88;5117625;28;20185;-69
2023/04/15 03:44:35;;;;;;;15.93;14.07;;;;;;;5.24;81.45;100367.31;5117227;28;20760;-69
2023/04/15 03:47:01;;;;;;;16.13;14.40;;;;;;;5.22;81.73;100362.13;5117268;28;20185;-69
2023/04/15 03:49:27;;;;;;;17.43;15.43;;;;;;;5.24;81.88;100364.66;5117171;28;20185;-69
2023/04/15 03:51:54;;;;;;;16.63;14.93;;;;;;;5.24;82.12;100367.31;5117436;28;20255;-69
2023/04/15 03:54:20;;;;;;;15.60;14.27;;;;;;;5.25;81.91;100369.06;5117083;28;20205;-69
2023/04/15 03:56:47;;;;;;;16.37;14.67;;;;;;;5.27;82.26;100370.69;5117350;28;20185;-69
2023/04/15 03:59:13;;;;;;;18.57;14.93;;;;;;;5.31;82.00;100379.31;5117038;28;20189;-70
2023/04/15 04:01:40;;;;;;;17.33;14.80;;;;;;;5.35;82.02;100374.72;5116886;28;20204;-69
2023/04/15 04:04:06;;;;;;;16.87;15.00;;;;;;;5.30;81.70;100374.97;5117054;28;20295;-69
2023/04/15 04:06:33;;;;;;;17.37;15.37;;;;;;;5.37;82.15;100372.81;5117132;28;20657;-69
2023/04/15 04:09:00;;;;;;;16.83;14.43;;;;;;;5.36;82.28;100374.59;5117370;28;20188;-69
2023/04/15 04:11:27;;;;;;;20.40;16.53;;;;;;;5.38;82.22;100377.19;5116745;28;20212;-69
2023/04/15 04:13:53;;;;;;;15.93;14.47;;;;;;;5.36;82.17;100376.41;5117246;28;20284;-69
2023/04/15 04:16:19;;;;;;;21.37;14.53;;;;;;;5.33;81.85;100388.91;5116947;28;20554;-69
2023/04/15 04:18:46;;;;;;;17.53;15.67;;;;;;;5.31;82.34;100381.97;5116620;28;20192;-69
2023/04/15 04:21:13;;;;;;;17.17;15.33;;;;;;;5.26;82.27;100381.38;5116537;28;20204;-69
2023/04/15 04:23:39;;;;;;;16.17;14.73;;;;;;;5.33;81.76;100396.03;5116537;28;20196;-69
2023/04/15 04:26:06;;;;;;;17.10;15.43;;;;;;;5.25;82.68;100385.84;5116569;28;20244;-70
2023/04/15 04:28:32;;;;;;;16.47;14.87;;;;;;;5.19;82.39;100388.81;5116744;28;20177;-69
2023/04/15 04:30:58;;;;;;;22.77;14.80;;;;;;;5.17;82.91;100385.41;5116716;28;20689;-69
2023/04/15 04:33:25;;;;;;;16.20;14.53;;;;;;;5.16;82.97;100386.34;5116652;28;20180;-69
2023/04/15 04:35:51;;;;;;;19.03;15.50;;;;;;;5.12;83.24;100392.75;5116231;28;20197;-69
2023/04/15 04:38:18;;;;;;;17.23;15.40;;;;;;;5.09;83.11;100399.06;5116254;28;20192;-69
2023/04/15 04:40:44;;;;;;;17.23;15.40;;;;;;;5.10;83.46;100398.16;5116139;28;20205;-69
2023/04/15 04:43:10;;;;;;;16.40;14.73;;;;;;;5.11;83.55;100410.47;5116729;28;20196;-69
2023/04/15 04:45:37;;;;;;;17.77;14.67;;;;;;;5.08;83.28;100405.34;5116048;28;20215;-69
2023/04/15 04:48:05;;;;;;;18.67;15.07;;;;;;;5.07;83.76;100413.38;5116572;28;20245;-69
2023/04/15 04:50:32;;;;;;;16.37;14.67;;;;;;;5.03;83.48;100412.69;5116017;28;20182;-70
2023/04/15 04:52:59;;;;;;;16.30;14.63;;;;;;;5.03;83.56;100414.50;5114869;28;20195;-69
2023/04/15 04:55:26;;;;;;;17.53;15.23;;;;;;;5.00;83.77;100427.91;5115961;28;20203;-69
2023/04/15 04:57:53;;;;;;;18.23;15.83;;;;;;;5.01;83.28;100419.88;5116168;28;20550;-69
2023/04/15 05:00:19;;;;;;;26.00;15.57;;;;;;;4.93;83.51;100424.72;5115806;28;20232;-69
2023/04/15 05:02:46;;;;;;;33.00;15.70;;;;;;;4.94;83.51;100420.31;5116051;28;20545;-69
2023/04/15 05:05:12;;;;;;;18.43;15.37;;;;;;;4.91;84.27;100423.97;5115716;28;20239;-69
2023/04/15 05:07:39;;;;;;;22.17;16.37;;;;;;;4.88;83.87;100430.31;5115690;28;20739;-69
2023/04/15 05:10:06;;;;;;;18.50;16.20;;;;;;;4.88;84.02;100440.03;5115637;28;20195;-69
2023/04/15 05:12:32;;;;;;;26.30;16.63;;;;;;;4.90;84.30;100440.81;5115920;28;20659;-69
2023/04/15 05:14:58;;;;;;;22.50;16.57;;;;;;;4.85;84.66;100442.84;5115493;28;20207;-69
2023/04/15 05:17:25;;;;;;;20.93;16.90;;;;;;;4.88;84.34;100448.88;5115827;28;20177;-69
2023/04/15 05:19:52;;;;;;;24.87;17.43;;;;;;;4.87;84.34;100446.28;5115461;28;20184;-69
2023/04/15 05:22:19;;;;;;;26.57;17.20;;;;;;;4.88;84.57;100443.56;5115379;28;20195;-69
2023/04/15 05:24:45;;;;;;;29.63;17.40;;;;;;;4.91;84.76;100447.84;5115544;28;20220;-69
2023/04/15 05:27:11;;;;;;;21.07;18.30;;;;;;;4.89;85.52;100461.19;5115282;28;20202;-69
2023/04/15 05:29:38;;;;;;;25.43;18.27;;;;;;;4.92;84.82;100456.66;5115277;28;20192;-70
2023/04/15 05:32:05;;;;;;;23.43;18.47;;;;;;;4.97;85.22;100458.13;5115369;28;20188;-70
2023/04/15 05:34:31;;;;;;;26.20;19.07;;;;;;;4.93;84.74;100456.56;5114905;28;20209;-69
2023/04/15 05:36:57;;;;;;;28.63;19.77;;;;;;;4.98;85.35;100458.97;5115703;28;20529;-69
2023/04/15 05:39:24;;;;;;;38.00;18.17;;;;;;;5.06;85.31;100467.41;5114848;28;20195;-69
2023/04/15 05:41:50;;;;;;;36.73;20.57;;;;;;;5.07;85.46;100459.34;5114824;28;20234;-69
2023/04/15 05:44:16;;;;;;;40.90;20.90;;;;;;;5.07;85.82;100469.97;5114781;28;20214;-70
2023/04/15 05:46:43;;;;;;;32.87;20.43;;;;;;;5.11;85.84;100471.53;5115252;28;20191;-70
2023/04/15 05:49:09;;;;;;;35.03;20.93;;;;;;;5.22;85.50;100478.03;5114911;28;20185;-70
2023/04/15 05:51:35;;;;;;;30.87;21.20;;;;;;;5.23;86.24;100474.47;5115129;28;20658;-70
2023/04/15 05:54:02;;;;;;;32.67;21.43;;;;;;;5.27;85.97;100482.19;5114963;28;20216;-69
2023/04/15 05:56:28;;;;;;;29.57;21.17;;;;;;;5.30;85.94;100479.34;5114964;28;20194;-69
2023/04/15 05:58:55;;;;;;;26.40;19.63;;;;;;;5.38;85.84;100481.59;5114693;28;20181;-69
2023/04/15 06:01:21;;;;;;;30.50;20.03;;;;;;;5.40;86.15;100485.03;5114832;28;20671;-69
2023/04/15 06:03:48;;;;;;;33.03;21.53;;;;;;;5.45;85.88;100490.09;5114504;28;20203;-69
2023/04/15 06:06:14;;;;;;;35.97;20.47;;;;;;;5.54;85.54;100495.75;5114511;28;20192;-69
2023/04/15 06:08:40;;;;;;;30.20;21.53;;;;;;;5.61;85.45;100500.75;5115036;28;20180;-69
2023/04/15 06:11:07;;;;;;;32.73;21.10;;;;;;;5.63;85.75;100494.41;5115114;28;20181;-69
2023/04/15 06:13:33;;;;;;;32.07;21.43;;;;;;;5.72;85.59;100490.34;5114416;28;20253;-69
2023/04/15 06:16:00;;;;;;;29.93;20.00;;;;;;;5.74;85.74;100502.63;5114150;28;20216;-69
2023/04/15 06:18:26;;;;;;;31.37;21.30;;;;;;;5.85;85.20;100499.38;5114571;28;20203;-69
2023/04/15 06:20:53;;;;;;;38.03;20.77;;;;;;;5.90;85.03;100502.63;5114423;28;20674;-69
2023/04/15 06:23:19;;;;;;;30.23;22.23;;;;;;;6.00;84.75;100507.47;5114208;28;20199;-69
2023/04/15 06:25:46;;;;;;;34.03;21.57;;;;;;;6.02;84.77;100509.09;5114528;28;20212;-69
2023/04/15 06:28:12;;;;;;;33.70;21.90;;;;;;;6.05;84.82;100516.03;5114475;28;20181;-70
2023/04/15 06:30:39;;;;;;;27.23;20.13;;;;;;;6.17;84.51;100510.88;5114091;28;20190;-70
2023/04/15 06:33:06;;;;;;;30.93;20.30;;;;;;;6.28;84.35;100520.06;5114032;28;20193;-70
2023/04/15 06:35:32;;;;;;;32.60;20.43;;;;;;;6.38;84.40;100519.41;5113874;28;20308;-70
2023/04/15 06:37:59;;;;;;;30.93;20.80;;;;;;;6.51;83.96;100519.59;5114302;28;20181;-70
2023/04/15 06:40:25;;;;;;;32.10;20.87;;;;;;;6.63;83.68;100530.44;5113876;28;20188;-70
2023/04/15 06:42:52;;;;;;;27.33;20.87;;;;;;;6.64;83.16;100530.34;5113944;28;20212;-70
2023/04/15 06:45:18;;;;;;;40.57;19.87;;;;;;;6.73;83.12;100528.97;5095563;28;20212;-70
2023/04/15 06:47:45;;;;;;;27.43;20.10;;;;;;;6.85;83.08;100530.03;5114156;28;20196;-70
2023/04/15 06:50:12;;;;;;;26.17;18.37;;;;;;;6.95;83.69;100526.72;5114385;28;20579;-70
2023/04/15 06:52:39;;;;;;;21.47;17.80;;;;;;;7.10;83.43;100537.41;5114398;28;20185;-71
2023/04/15 06:55:06;;;;;;;23.57;17.57;;;;;;;7.22;83.29;100531.34;5113982;28;20580;-70
2023/04/15 06:57:33;;;;;;;30.90;18.53;;;;;;;7.23;82.15;100535.69;5113983;28;20673;-70
2023/04/15 07:00:00;;;;;;;19.37;16.90;;;;;;;7.31;82.25;100541.44;5113994;28;20271;-70
2023/04/15 07:02:27;;;;;;;21.67;15.37;;;;;;;7.40;81.00;100546.19;5113910;28;20255;-70
2023/04/15 07:04:54;;;;;;;17.23;15.43;;;;;;;7.49;80.23;100538.56;5113634;28;20301;-70
2023/04/15 07:07:20;;;;;;;15.87;14.37;;;;;;;7.63;80.34;100543.91;5113704;28;20230;-70
2023/04/15 07:09:47;;;;;;;17.97;15.40;;;;;;;7.69;79.84;100543.53;5113641;28;20195;-70
2023/04/15 07:12:13;;;;;;;15.50;14.03;;;;;;;7.75;79.79;100547.59;5113882;28;20190;-70
2023/04/15 07:14:39;;;;;;;15.73;14.33;;;;;;;7.83;79.75;100550.66;5114626;28;20560;-70
2023/04/15 07:17:06;;;;;;;15.20;13.87;;;;;;;7.93;79.47;100556.28;5118404;28;20532;-70
2023/04/15 07:19:32;;;;;;;14.97;13.47;;;;;;;7.99;78.72;100554.03;5117691;28;20189;-70
2023/04/15 07:21:59;;;;;;;15.47;13.77;;;;;;;8.19;77.78;100567.91;5117621;28;20209;-70
2023/04/15 07:24:25;;;;;;;15.90;14.33;;;;;;;8.23;77.71;100564.94;5117617;28;20713;-70
2023/04/15 07:26:57;;;;;;;15.23;13.63;;;;;;;8.36;77.61;100564.16;5117553;28;20219;-70
2023/04/15 07:29:26;;;;;;;13.73;12.63;;;;;;;8.45;77.32;100566.25;5118241;28;20260;-70
2023/04/15 07:31:52;;;;;;;14.40;12.83;;;;;;;8.51;76.81;100564.03;5117548;28;20182;-70
2023/04/15 07:34:19;;;;;;;14.50;13.20;;;;;;;8.62;76.81;100565.13;5117561;28;20215;-70
2023/04/15 07:36:49;;;;;;;13.27;12.27;;;;;;;8.72;76.30;100571.59;5105438;28;20207;-69
2023/04/15 07:39:15;;;;;;;13.50;12.17;;;;;;;8.81;75.77;100568.31;5116577;28;20566;-69
2023/04/15 07:41:42;;;;;;;13.33;12.10;;;;;;;8.89;75.63;100568.63;5117571;28;20560;-70
2023/04/15 07:44:08;;;;;;;13.97;12.50;;;;;;;8.91;74.55;100568.53;5117724;28;20201;-70
2023/04/15 07:46:36;;;;;;;13.10;11.97;;;;;;;8.99;73.83;100573.38;5117337;28;20192;-70
2023/04/15 07:49:02;;;;;;;12.10;11.13;;;;;;;9.07;73.60;100571.00;5117210;28;20271;-70
2023/04/15 07:51:31;;;;;;;12.63;11.73;;;;;;;9.10;73.41;100577.03;5117223;28;20206;-70
2023/04/15 07:53:57;;;;;;;10.63;9.90;;;;;;;9.23;73.15;100581.53;5116985;28;20220;-70
2023/04/15 07:56:25;;;;;;;11.40;10.70;;;;;;;9.25;72.94;100583.13;5116971;28;20196;-70
2023/04/15 07:58:51;;;;;;;10.80;9.87;;;;;;;9.43;72.05;100585.47;5117299;28;20194;-70
2023/04/15 08:01:18;;;;;;;15.57;9.53;;;;;;;9.48;71.71;100578.00;5116883;28;20567;-70
2023/04/15 08:03:45;;;;;;;8.80;8.33;;;;;;;9.51;69.54;100578.66;5117045;28;20219;-70
2023/04/15 08:06:11;;;;;;;7.20;7.10;;;;;;;9.69;69.56;100583.66;5116915;28;20219;-70
2023/04/15 08:08:38;;;;;;;7.90;7.60;;;;;;;9.72;68.91;100578.09;5116841;28;20181;-70
2023/04/15 08:11:04;;;;;;;7.97;7.57;;;;;;;9.75;67.94;100589.44;5116922;28;20204;-70
2023/04/15 08:13:31;;;;;;;7.90;7.60;;;;;;;9.84;68.16;100593.28;5117403;28;20273;-71
2023/04/15 08:16:20;;;;;;;8.10;7.57;;;;;;;9.83;68.39;100599.59;5116693;28;20223;-70
2023/04/15 08:18:48;;;;;;;9.30;8.53;;;;;;;9.92;68.05;100595.41;5117184;28;20189;-70
2023/04/15 08:21:15;;;;;;;8.00;7.77;;;;;;;9.95;67.28;100595.19;5116507;28;20209;-70
2023/04/15 08:23:42;;;;;;;8.30;7.67;;;;;;;10.04;67.66;100602.56;5116618;28;20190;-70
2023/04/15 08:26:09;;;;;;;8.33;7.87;;;;;;;9.97;67.11;100602.13;5116233;28;20207;-70
2023/04/15 08:28:38;;;;;;;8.63;8.23;;;;;;;10.13;65.81;100607.25;5116452;28;20276;-71
2023/04/15 08:31:04;;;;;;;9.33;8.53;;;;;;;10.08;65.95;100600.50;5116462;28;20193;-71
2023/04/15 08:33:31;;;;;;;7.93;7.43;;;;;;;10.18;66.94;100602.41;5116435;28;20594;-71
2023/04/15 08:35:57;;;;;;;8.53;8.13;;;;;;;10.18;66.63;100607.78;5116245;28;20201;-70
2023/04/15 08:38:23;;;;;;;8.43;8.13;;;;;;;10.28;66.54;100609.78;5116178;28;20181;-70
2023/04/15 08:40:50;;;;;;;6.93;6.77;;;;;;;10.39;64.94;100610.75;5116203;28;20181;-70
2023/04/15 08:43:25;;;;;;;8.50;8.23;;;;;;;10.43;64.95;100620.25;5116589;28;20192;-70
2023/04/15 08:45:51;;;;;;;7.67;7.47;;;;;;;10.55;65.73;100602.44;5116337;28;20212;-70
2023/04/15 08:48:18;;;;;;;9.00;8.60;;;;;;;10.69;64.36;100609.44;5116286;28;20269;-70
2023/04/15 08:50:45;;;;;;;7.77;7.53;;;;;;;10.66;63.89;100607.00;5116289;28;20190;-70
2023/04/15 08:53:13;;;;;;;7.93;7.63;;;;;;;10.68;64.63;100605.06;5116324;28;20647;-70
2023/04/15 08:55:44;;;;;;;8.37;8.07;;;;;;;10.71;64.24;100617.38;5116239;28;20213;-70
2023/04/15 08:58:15;;;;;;;7.53;7.33;;;;;;;10.73;65.57;100610.94;5116513;28;20176;-70
2023/04/15 09:00:41;;;;;;;8.37;8.07;;;;;;;10.84;65.63;100613.66;5115862;28;20197;-71
2023/04/15 09:03:08;;;;;;;7.10;6.90;;;;;;;10.89;65.33;100615.13;5116062;28;20216;-70
2023/04/15 09:05:36;;;;;;;7.50;7.10;;;;;;;10.88;64.42;100616.97;5115947;28;20208;-70
2023/04/15 09:08:03;;;;;;;6.97;6.77;;;;;;;10.85;64.35;100622.56;5116507;28;20185;-70
2023/04/15 09:10:31;;;;;;;7.13;6.93;;;;;;;10.95;65.15;100625.41;5116338;28;20556;-70
2023/04/15 09:12:57;;;;;;;8.10;7.60;;;;;;;11.00;63.48;100633.97;5115990;28;20181;-70
2023/04/15 09:15:26;;;;;;;7.27;7.07;;;;;;;11.07;63.55;100637.88;5116104;28;20280;-71
2023/04/15 09:17:53;;;;;;;7.80;7.60;;;;;;;11.03;63.78;100639.06;5116198;28;20170;-71
2023/04/15 09:20:19;;;;;;;7.90;7.63;;;;;;;11.17;63.67;100641.56;5098013;28;20178;-71
2023/04/15 09:22:47;;;;;;;7.67;7.47;;;;;;;11.14;64.12;100641.81;5115328;28;20224;-71
2023/04/15 09:25:13;;;;;;;7.97;7.73;;;;;;;11.20;64.54;100648.53;5115655;28;20219;-71
2023/04/15 09:27:50;;;;;;;8.80;8.40;;;;;;;11.45;65.62;100655.56;5115504;28;20196;-71
2023/04/15 09:30:16;;;;;;;8.73;8.33;;;;;;;11.57;65.11;100656.44;5115971;28;20181;-71
2023/04/15 09:32:50;;;;;;;8.27;7.63;;;;;;;11.55;65.25;100663.75;5115938;28;20189;-70
2023/04/15 09:35:17;;;;;;;7.50;7.33;;;;;;;11.42;64.06;100664.69;5115719;28;20208;-70
2023/04/15 09:37:44;;;;;;;7.70;7.47;;;;;;;11.30;63.43;100671.00;5115320;28;20578;-70
2023/04/15 09:40:11;;;;;;;6.13;6.13;;;;;;;11.33;64.07;100672.59;5115709;28;20192;-70
2023/04/15 09:42:58;;;;;;;7.70;7.50;;;;;;;11.16;64.57;100668.50;5115666;28;20208;-71
2023/04/15 09:45:25;;;;;;;7.50;7.33;;;;;;;11.12;64.40;100670.56;5115227;28;20221;-71
2023/04/15 09:47:57;;;;;;;7.57;7.43;;;;;;;11.09;64.86;100661.91;5115148;28;20173;-71
2023/04/15 09:50:31;;;;;;;7.17;6.97;;;;;;;11.04;65.76;100667.59;5115642;28;20174;-71
2023/04/15 09:52:58;;;;;;;6.90;6.80;;;;;;;11.14;65.61;100667.78;5115505;28;20249;-72
2023/04/15 09:55:24;;;;;;;10.17;9.77;;;;;;;11.09;65.98;100664.59;5115410;28;20209;-71
2023/04/15 09:57:51;;;;;;;8.73;8.33;;;;;;;11.16;65.99;100679.22;5115081;28;20196;-71
2023/04/15 10:00:17;;;;;;;9.20;8.70;;;;;;;11.29;65.64;100680.84;5115162;28;20191;-71
2023/04/15 10:02:46;;;;;;;9.47;9.03;;;;;;;11.28;64.78;100687.19;5115604;28;20207;-71
2023/04/15 10:05:15;;;;;;;9.23;8.93;;;;;;;11.13;65.64;100685.66;5115122;28;20572;-72
2023/04/15 10:07:42;;;;;;;8.67;8.27;;;;;;;11.16;65.50;100687.28;5115117;28;20190;-71
2023/04/15 10:10:10;;;;;;;10.03;9.57;;;;;;;11.20;66.68;100689.56;5114923;28;20260;-71
2023/04/15 10:12:39;;;;;;;10.30;9.80;;;;;;;11.15;67.26;100693.59;5115390;28;20590;-71
2023/04/15 10:15:13;;;;;;;10.90;10.33;;;;;;;11.18;66.79;100693.34;5115584;28;20690;-70
2023/04/15 10:17:43;;;;;;;10.07;9.37;;;;;;;11.13;66.24;100700.88;5115195;28;20177;-71
2023/04/15 10:20:11;;;;;;;9.97;9.30;;;;;;;11.04;66.61;100708.66;5097007;28;20567;-71
2023/04/15 10:22:40;;;;;;;8.67;8.37;;;;;;;11.05;65.61;100710.34;5115370;28;20542;-70
2023/04/15 10:25:08;;;;;;;9.13;8.73;;;;;;;10.93;65.81;100713.94;5096269;28;20213;-71
2023/04/15 10:27:35;;;;;;;9.53;9.13;;;;;;;10.96;66.24;100718.22;5114096;28;20189;-71
2023/04/15 10:30:02;;;;;;;9.77;9.17;;;;;;;11.05;67.60;100713.03;5114100;28;20551;-71
2023/04/15 10:32:29;;;;;;;9.37;8.67;;;;;;;11.16;66.98;100706.03;5114303;28;20612;-71
2023/04/15 10:34:56;;;;;;;9.07;8.77;;;;;;;11.24;67.10;100704.47;5114322;28;20205;-71
2023/04/15 10:37:35;;;;;;;9.90;9.50;;;;;;;11.22;66.35;100710.91;5114391;28;20521;-71
2023/04/15 10:40:24;;;;;;;10.97;10.37;;;;;;;11.17;68.33;100722.00;5114015;28;20185;-71
2023/04/15 10:42:50;;;;;;;9.37;8.97;;;;;;;11.10;67.71;100722.56;5114143;28;20197;-71
2023/04/15 10:45:18;;;;;;;8.53;8.33;;;;;;;11.03;67.50;100728.38;5113844;28;20213;-71
2023/04/15 10:47:44;;;;;;;9.53;9.03;;;;;;;10.97;68.49;100728.84;5114694;28;20185;-71
2023/04/15 10:50:11;;;;;;;9.20;8.90;;;;;;;11.01;68.80;100719.59;5112841;28;20655;-70
2023/04/15 10:52:41;;;;;;;8.70;8.30;;;;;;;10.98;68.42;100724.31;5114076;28;20250;-71
2023/04/15 10:55:19;;;;;;;8.20;7.80;;;;;;;11.02;68.07;100724.00;5113845;28;20630;-71
2023/04/15 10:57:45;;;;;;;7.63;7.43;;;;;;;11.13;68.12;100733.03;5114036;28;20181;-71
2023/04/15 11:00:16;;;;;;;8.20;7.80;;;;;;;11.09;67.83;100728.91;5114323;28;20181;-71
2023/04/15 11:02:52;;;;;;;7.73;7.43;;;;;;;11.13;67.01;100725.84;5113981;28;20195;-71
2023/04/15 11:05:21;;;;;;;9.50;9.00;;;;;;;11.05;66.80;100734.47;5113861;28;20240;-71
2023/04/15 11:07:50;;;;;;;7.60;7.40;;;;;;;11.06;66.98;100727.28;5113989;28;20184;-71
2023/04/15 11:10:16;;;;;;;7.47;7.37;;;;;;;11.05;67.67;100737.16;5113966;28;20185;-71
2023/04/15 11:12:44;;;;;;;7.70;7.47;;;;;;;10.99;67.67;100734.94;5114251;28;20252;-71
2023/04/15 11:15:37;;;;;;;6.87;6.77;;;;;;;11.01;67.55;100740.16;5095823;28;20620;-71
2023/04/15 11:18:11;;;;;;;6.73;6.63;;;;;;;11.06;67.87;100736.19;5113542;28;20201;-71
2023/04/15 11:20:39;;;;;;;7.07;6.67;;;;;;;11.09;66.83;100743.16;5114073;28;20353;-71